KSNL

Shawnee Regional Airport

Shawnee, Oklahoma, USA
METAR KSNL 160555Z AUTO 07004KT 10SM CLR 25/22 A2995 RMK AO2 T02480215 10300 20245 403130205
Observed Flight Rules
Aug-16 @ 05:55 UTC (22 minutes ago) Visual Flight Rules
Wind Visibility Clouds
70° at 4 knots 10 miles
  • Clear skies
Temperatures Readings
Current 25°C / 77°F
Dewpoint 22°C / 72°F
Humidity 83%
Altimeter 29.95" Hg
Pressure 1014 hPa
Elevation 327
METAR KSNL 160555Z AUTO 07004KT 10SM CLR 25/22 A2995 RMK AO2 T02480215 10300 20245 403130205
Observed Flight Rules
Aug-16 @ 05:55 UTC
(22 minutes ago)
VFR
Wind Visibility
70° at 4 knots 10 miles
Clouds
  • Clear skies
Temperature Dewpoint
25°C / 77°F 22°C / 72°F
Humidity Altimeter Pressure
83% 29.95" Hg 1014 hPa